createdAt,value
2023-02-13T00:00:58.168Z,89.65
2023-02-13T00:03:26.240Z,89.63
2023-02-13T00:05:53.952Z,89.56
2023-02-13T00:08:21.736Z,89.30
2023-02-13T00:10:49.858Z,89.60
2023-02-13T00:13:17.903Z,89.51
2023-02-13T00:15:45.841Z,89.37
2023-02-13T00:18:13.615Z,89.16
2023-02-13T00:20:41.326Z,89.32
2023-02-13T00:23:09.069Z,89.41
2023-02-13T00:25:37.050Z,89.27
2023-02-13T00:28:04.913Z,89.31
2023-02-13T00:30:32.639Z,89.25
2023-02-13T00:33:00.347Z,89.05
2023-02-13T00:35:28.035Z,88.92
2023-02-13T00:37:55.887Z,88.93
2023-02-13T00:40:23.795Z,90.15
2023-02-13T00:42:51.493Z,90.02
2023-02-13T00:45:19.389Z,92.02
2023-02-13T00:47:47.197Z,90.67
2023-02-13T00:50:14.891Z,91.18
2023-02-13T00:52:42.564Z,90.88
2023-02-13T00:55:10.381Z,90.81
2023-02-13T00:57:38.092Z,90.86
2023-02-13T01:00:06.728Z,91.95
2023-02-13T01:02:37.334Z,92.59
2023-02-13T01:05:05.296Z,92.64
2023-02-13T01:07:33.147Z,92.72
2023-02-13T01:10:00.871Z,92.52
2023-02-13T01:12:28.596Z,92.28
2023-02-13T01:14:57.186Z,92.27
2023-02-13T01:17:25.036Z,92.31
2023-02-13T01:19:52.828Z,92.14
2023-02-13T01:22:20.716Z,92.07
2023-02-13T01:24:48.474Z,92.36
2023-02-13T01:27:17.211Z,92.03
2023-02-13T01:29:45.837Z,92.69
2023-02-13T01:32:13.707Z,93.12
2023-02-13T01:34:41.879Z,93.70
2023-02-13T01:37:10.002Z,93.99
2023-02-13T01:39:37.872Z,93.81
2023-02-13T01:42:06.637Z,93.60
2023-02-13T01:44:57.644Z,93.89
2023-02-13T01:47:54.350Z,93.35
2023-02-13T01:50:59.907Z,93.86
2023-02-13T01:53:30.386Z,93.61
2023-02-13T01:56:03.306Z,93.19
2023-02-13T01:58:35.217Z,93.21
2023-02-13T02:01:04.212Z,92.88
2023-02-13T02:03:38.312Z,92.89
2023-02-13T02:06:08.601Z,92.47
2023-02-13T02:08:37.657Z,92.33
2023-02-13T02:11:13.114Z,92.35
2023-02-13T02:13:41.144Z,92.33
2023-02-13T02:16:09.109Z,92.36
2023-02-13T02:18:36.814Z,92.17
2023-02-13T02:21:16.737Z,91.97
2023-02-13T02:24:25.992Z,92.03
2023-02-13T02:27:12.410Z,91.91
2023-02-13T02:30:05.061Z,91.95
2023-02-13T02:32:57.787Z,92.12
2023-02-13T02:35:43.904Z,92.25
2023-02-13T02:38:40.648Z,92.47
2023-02-13T02:41:43.507Z,92.32
2023-02-13T02:44:39.366Z,92.24
2023-02-13T02:47:25.275Z,92.11
2023-02-13T02:50:04.450Z,91.86
2023-02-13T02:52:58.216Z,91.96
2023-02-13T02:55:37.798Z,92.06
2023-02-13T02:58:35.586Z,91.95
2023-02-13T03:01:26.072Z,91.96
2023-02-13T03:04:15.947Z,91.60
2023-02-13T03:07:04.339Z,91.45
2023-02-13T03:09:58.825Z,91.51
2023-02-13T03:12:53.410Z,91.43
2023-02-13T03:15:22.196Z,91.56
2023-02-13T03:18:08.607Z,91.38
2023-02-13T03:21:21.913Z,91.34
2023-02-13T03:24:18.648Z,91.06
2023-02-13T03:27:09.641Z,90.83
2023-02-13T03:30:09.012Z,90.50
2023-02-13T03:33:12.824Z,90.40
2023-02-13T03:36:20.821Z,90.26
2023-02-13T03:39:20.576Z,90.20
2023-02-13T03:42:03.835Z,89.91
2023-02-13T03:44:44.392Z,89.66
2023-02-13T03:47:15.186Z,89.79
2023-02-13T03:50:09.302Z,89.79
2023-02-13T03:52:41.246Z,89.62
2023-02-13T03:55:32.592Z,89.51
2023-02-13T03:58:25.125Z,89.25
2023-02-13T04:00:58.920Z,89.12
2023-02-13T04:03:31.832Z,89.06
2023-02-13T04:06:14.421Z,88.90
2023-02-13T04:08:43.048Z,88.90
2023-02-13T04:11:26.625Z,88.79
2023-02-13T04:14:02.997Z,88.80
2023-02-13T04:16:44.627Z,88.84
2023-02-13T04:19:13.280Z,88.71
2023-02-13T04:21:41.582Z,88.71
2023-02-13T04:24:10.429Z,88.62
2023-02-13T04:26:42.079Z,88.66
2023-02-13T04:29:10.666Z,88.58
2023-02-13T04:31:38.509Z,88.54
2023-02-13T04:34:06.326Z,88.65
2023-02-13T04:36:34.027Z,88.60
2023-02-13T04:39:01.852Z,88.68
2023-02-13T04:41:29.581Z,88.61
2023-02-13T04:43:57.391Z,88.39
2023-02-13T04:46:25.239Z,88.41
2023-02-13T04:48:53.036Z,88.35
2023-02-13T04:51:20.735Z,88.28
2023-02-13T04:53:48.404Z,88.20
2023-02-13T04:56:16.935Z,88.19
2023-02-13T04:58:45.321Z,88.38
2023-02-13T05:01:14.855Z,88.18
2023-02-13T05:03:43.036Z,88.11
2023-02-13T05:06:10.820Z,88.20
2023-02-13T05:08:38.838Z,88.33
2023-02-13T05:11:07.100Z,88.30
2023-02-13T05:13:35.110Z,88.05
2023-02-13T05:16:03.014Z,88.16
2023-02-13T05:18:30.853Z,88.11
2023-02-13T05:21:17.080Z,88.09
2023-02-13T05:23:44.744Z,88.38
2023-02-13T05:26:12.515Z,88.59
2023-02-13T05:28:58.728Z,88.62
2023-02-13T05:31:26.612Z,88.66
2023-02-13T05:33:54.458Z,88.76
2023-02-13T05:36:22.219Z,88.74
2023-02-13T05:38:49.936Z,88.58
2023-02-13T05:41:17.648Z,88.41
2023-02-13T05:43:45.469Z,88.50
2023-02-13T05:46:13.171Z,88.75
2023-02-13T05:48:40.940Z,88.61
2023-02-13T05:51:08.644Z,88.87
2023-02-13T05:53:36.646Z,89.28
2023-02-13T05:56:06.711Z,89.32
2023-02-13T05:58:35.428Z,89.22
2023-02-13T06:01:03.323Z,89.59
2023-02-13T06:03:33.265Z,89.33
2023-02-13T06:06:01.406Z,89.37
2023-02-13T06:08:29.569Z,89.50
2023-02-13T06:10:57.273Z,89.40
2023-02-13T06:13:24.986Z,89.54
2023-02-13T06:15:52.892Z,89.32
2023-02-13T06:18:20.546Z,89.13
2023-02-13T06:20:48.315Z,89.14
2023-02-13T06:23:16.136Z,89.14
2023-02-13T06:25:43.952Z,89.20
2023-02-13T06:28:11.801Z,89.17
2023-02-13T06:30:39.487Z,89.20
2023-02-13T06:33:07.272Z,89.21
2023-02-13T06:35:35.144Z,89.32
2023-02-13T06:38:03.064Z,89.42
2023-02-13T06:40:30.794Z,89.44
2023-02-13T06:42:58.666Z,89.36
2023-02-13T06:45:26.375Z,89.29
2023-02-13T06:47:54.062Z,89.35
2023-02-13T06:50:21.933Z,89.21
2023-02-13T06:52:53.008Z,89.01
2023-02-13T06:55:22.002Z,89.25
2023-02-13T06:57:50.143Z,89.05
2023-02-13T07:00:19.222Z,88.99
2023-02-13T07:02:48.406Z,89.04
2023-02-13T07:05:16.636Z,89.10
2023-02-13T07:07:44.432Z,89.09
2023-02-13T07:10:14.409Z,89.08
2023-02-13T07:12:42.441Z,88.98
2023-02-13T07:15:10.638Z,89.11
2023-02-13T07:17:38.450Z,88.87
2023-02-13T07:20:07.895Z,88.98
2023-02-13T07:22:36.154Z,88.81
2023-02-13T07:25:03.976Z,88.75
2023-02-13T07:27:31.692Z,88.55
2023-02-13T07:29:59.566Z,88.12
2023-02-13T07:32:27.317Z,88.47
2023-02-13T07:35:02.117Z,88.66
2023-02-13T07:37:32.483Z,89.04
2023-02-13T07:40:00.622Z,89.34
2023-02-13T07:42:28.397Z,89.23
2023-02-13T07:44:56.122Z,89.11
2023-02-13T07:47:23.784Z,88.96
2023-02-13T07:49:51.514Z,88.74
2023-02-13T07:52:19.190Z,88.78
2023-02-13T07:54:49.979Z,88.61
2023-02-13T07:57:18.362Z,88.61
2023-02-13T07:59:46.758Z,88.55
2023-02-13T08:02:16.384Z,88.42
2023-02-13T08:04:47.270Z,88.27
2023-02-13T08:07:16.677Z,88.01
2023-02-13T08:10:06.364Z,87.98
2023-02-13T08:12:36.937Z,88.06
2023-02-13T08:15:05.348Z,87.83
2023-02-13T08:17:33.022Z,87.82
2023-02-13T08:20:00.794Z,87.69
2023-02-13T08:22:28.504Z,87.49
2023-02-13T08:24:56.187Z,87.61
2023-02-13T08:27:24.275Z,87.52
2023-02-13T08:29:52.393Z,87.46
2023-02-13T08:32:20.104Z,87.33
2023-02-13T08:34:47.868Z,87.35
2023-02-13T08:37:15.659Z,87.20
2023-02-13T08:39:43.498Z,87.00
2023-02-13T08:42:15.162Z,86.96
2023-02-13T08:44:44.057Z,87.05
2023-02-13T08:47:11.813Z,87.01
2023-02-13T08:49:39.537Z,86.91
2023-02-13T08:52:07.350Z,86.76
2023-02-13T08:54:37.228Z,86.87
2023-02-13T08:57:05.413Z,86.60
2023-02-13T08:59:33.152Z,86.63
2023-02-13T09:02:00.919Z,86.70
2023-02-13T09:04:29.246Z,86.70
2023-02-13T09:06:57.151Z,86.88
2023-02-13T09:09:24.996Z,86.96
2023-02-13T09:11:53.576Z,87.08
2023-02-13T09:14:21.213Z,86.74
2023-02-13T09:16:49.079Z,86.99
2023-02-13T09:19:17.028Z,87.00
2023-02-13T09:21:44.750Z,87.10
2023-02-13T09:24:12.585Z,87.02
2023-02-13T09:26:40.390Z,87.03
2023-02-13T09:29:08.249Z,87.05
2023-02-13T09:31:36.123Z,86.80
2023-02-13T09:34:04.095Z,86.72
2023-02-13T09:36:31.807Z,86.66
2023-02-13T09:38:59.547Z,86.76
2023-02-13T09:41:44.038Z,86.68
2023-02-13T09:44:36.164Z,86.70
2023-02-13T09:47:19.220Z,86.65
2023-02-13T09:49:52.346Z,86.47
2023-02-13T09:52:20.392Z,86.56
2023-02-13T09:54:48.143Z,86.48
2023-02-13T09:57:36.898Z,86.40
2023-02-13T10:00:23.823Z,85.91
2023-02-13T10:02:59.130Z,86.03
2023-02-13T10:05:44.848Z,86.26
2023-02-13T10:08:34.785Z,86.11
2023-02-13T10:11:27.988Z,85.86
2023-02-13T10:14:13.056Z,85.91
2023-02-13T10:16:52.085Z,85.76
2023-02-13T10:19:37.627Z,85.67
2023-02-13T10:22:17.880Z,85.53
2023-02-13T10:25:14.844Z,85.22
2023-02-13T10:27:48.181Z,85.06
2023-02-13T10:30:34.936Z,84.64
2023-02-13T10:33:22.607Z,84.60
2023-02-13T10:36:02.495Z,84.69
2023-02-13T10:38:36.670Z,84.72
2023-02-13T10:41:24.430Z,84.43
2023-02-13T10:44:21.185Z,84.22
2023-02-13T10:46:54.916Z,84.51
2023-02-13T10:49:43.872Z,84.50
2023-02-13T10:52:23.689Z,83.95
2023-02-13T10:55:12.302Z,84.01
2023-02-13T10:58:10.674Z,83.80
2023-02-13T11:01:10.453Z,83.97
2023-02-13T11:03:38.205Z,83.87
2023-02-13T11:06:17.513Z,83.67
2023-02-13T11:08:48.693Z,83.52
2023-02-13T11:11:39.344Z,83.67
2023-02-13T11:14:12.002Z,83.53
2023-02-13T11:16:52.823Z,83.39
2023-02-13T11:19:40.159Z,83.39
2023-02-13T11:22:17.170Z,83.33
2023-02-13T11:24:56.689Z,83.05
2023-02-13T11:27:32.444Z,83.12
2023-02-13T11:30:06.997Z,83.16
2023-02-13T11:32:36.453Z,83.04
2023-02-13T11:35:33.829Z,83.04
2023-02-13T11:38:16.698Z,82.88
2023-02-13T11:40:48.499Z,82.87
2023-02-13T11:43:32.484Z,82.75
2023-02-13T11:46:21.434Z,82.64
2023-02-13T11:48:59.716Z,82.73
2023-02-13T11:52:07.541Z,82.28
2023-02-13T11:54:41.685Z,82.22
2023-02-13T11:57:38.346Z,82.04
2023-02-13T12:00:43.105Z,82.13
2023-02-13T12:03:22.914Z,82.17
2023-02-13T12:06:07.586Z,82.17
2023-02-13T12:08:38.091Z,81.76
2023-02-13T12:11:44.723Z,81.90
2023-02-13T12:14:22.696Z,81.47
2023-02-13T12:16:55.447Z,81.44
2023-02-13T12:19:45.087Z,81.40
2023-02-13T12:22:35.174Z,81.04
2023-02-13T12:25:28.255Z,80.91
2023-02-13T12:28:34.141Z,80.71
2023-02-13T12:31:14.029Z,80.49
2023-02-13T12:34:25.032Z,80.19
2023-02-13T12:37:15.633Z,79.77
2023-02-13T12:40:04.031Z,78.77
2023-02-13T12:42:51.380Z,78.93
2023-02-13T12:45:26.904Z,79.24
2023-02-13T12:48:16.127Z,78.93
2023-02-13T12:50:46.884Z,79.11
2023-02-13T12:53:29.736Z,79.18
2023-02-13T12:56:24.464Z,78.44
2023-02-13T12:59:13.445Z,78.38
2023-02-13T13:01:53.053Z,78.38
2023-02-13T13:04:49.877Z,78.02
2023-02-13T13:07:51.927Z,77.24
2023-02-13T13:10:36.509Z,77.57
2023-02-13T13:13:26.679Z,77.25
2023-02-13T13:16:09.629Z,77.04
2023-02-13T13:18:52.286Z,77.19
2023-02-13T13:21:46.524Z,76.92
2023-02-13T13:24:39.306Z,76.42
2023-02-13T13:27:18.791Z,76.51
2023-02-13T13:29:52.998Z,76.06
2023-02-13T13:32:22.911Z,76.40
2023-02-13T13:34:51.222Z,76.13
2023-02-13T13:38:03.742Z,76.50
2023-02-13T13:40:40.125Z,76.56
2023-02-13T13:43:27.023Z,76.39
2023-02-13T13:46:10.194Z,76.23
2023-02-13T13:48:53.837Z,76.07
2023-02-13T13:51:21.838Z,75.74
2023-02-13T13:54:01.843Z,75.66
2023-02-13T13:57:05.181Z,75.89
2023-02-13T13:59:38.876Z,75.96
2023-02-13T14:02:18.840Z,76.00
2023-02-13T14:05:14.581Z,75.99
2023-02-13T14:07:43.553Z,75.96
2023-02-13T14:10:23.213Z,76.08
2023-02-13T14:13:03.573Z,76.00
2023-02-13T14:15:43.801Z,76.17
2023-02-13T14:18:14.479Z,76.17
2023-02-13T14:20:53.788Z,76.31
2023-02-13T14:23:58.722Z,76.21
2023-02-13T14:27:05.089Z,75.95
2023-02-13T14:29:34.688Z,76.12
2023-02-13T14:32:09.497Z,76.42
2023-02-13T14:34:40.680Z,76.55
2023-02-13T14:37:25.621Z,76.56
2023-02-13T14:40:13.244Z,76.81
2023-02-13T14:42:41.717Z,76.71
2023-02-13T14:45:19.944Z,76.45
2023-02-13T14:47:55.156Z,76.62
2023-02-13T14:50:37.624Z,76.67
2023-02-13T14:53:17.543Z,76.65
2023-02-13T14:55:47.930Z,76.65
2023-02-13T14:58:24.234Z,76.75
2023-02-13T15:01:01.555Z,76.62
2023-02-13T15:04:01.122Z,76.71
2023-02-13T15:06:34.327Z,76.65
2023-02-13T15:09:16.562Z,76.82
2023-02-13T15:11:45.390Z,76.90
2023-02-13T15:14:35.815Z,76.95
2023-02-13T15:17:15.475Z,76.78
2023-02-13T15:19:52.917Z,76.85
2023-02-13T15:22:42.432Z,76.96
2023-02-13T15:25:10.497Z,76.98
2023-02-13T15:27:44.093Z,77.43
2023-02-13T15:30:24.998Z,77.53
2023-02-13T15:33:22.341Z,77.48
2023-02-13T15:36:02.236Z,77.66
2023-02-13T15:38:35.961Z,77.79
2023-02-13T15:41:25.721Z,77.84
2023-02-13T15:43:58.261Z,77.89
2023-02-13T15:46:30.794Z,78.05
2023-02-13T15:49:11.562Z,77.93
2023-02-13T15:51:39.688Z,78.11
2023-02-13T15:54:24.360Z,78.10
2023-02-13T15:56:54.573Z,78.28
2023-02-13T15:59:23.269Z,78.54
2023-02-13T16:01:53.438Z,78.62
2023-02-13T16:04:22.714Z,78.68
2023-02-13T16:06:54.326Z,78.72
2023-02-13T16:09:28.299Z,79.06
2023-02-13T16:12:01.665Z,79.11
2023-02-13T16:14:32.822Z,79.05
2023-02-13T16:17:06.452Z,79.33
2023-02-13T16:19:54.330Z,79.55
2023-02-13T16:22:30.908Z,79.87
2023-02-13T16:25:13.576Z,79.96
2023-02-13T16:27:59.773Z,80.01
2023-02-13T16:30:42.841Z,80.21
2023-02-13T16:33:16.538Z,80.28
2023-02-13T16:35:50.295Z,80.31
2023-02-13T16:38:33.113Z,80.67
2023-02-13T16:41:05.765Z,80.70
2023-02-13T16:43:36.371Z,80.83
2023-02-13T16:46:20.658Z,80.93
2023-02-13T16:48:57.293Z,80.99
2023-02-13T16:51:31.062Z,81.00
2023-02-13T16:54:20.084Z,81.15
2023-02-13T16:56:56.089Z,81.15
2023-02-13T16:59:35.633Z,81.25
2023-02-13T17:02:21.259Z,81.33
2023-02-13T17:04:52.444Z,81.31
2023-02-13T17:07:23.486Z,81.58
2023-02-13T17:10:28.399Z,81.35
2023-02-13T17:12:59.314Z,81.39
2023-02-13T17:15:29.282Z,81.40
2023-02-13T17:17:57.074Z,81.68
2023-02-13T17:20:28.346Z,81.51
2023-02-13T17:22:58.302Z,81.65
2023-02-13T17:25:32.832Z,81.69
2023-02-13T17:28:22.507Z,81.62
2023-02-13T17:30:52.479Z,81.58
2023-02-13T17:33:26.316Z,81.54
2023-02-13T17:35:54.507Z,81.79
2023-02-13T17:38:22.983Z,81.95
2023-02-13T17:40:50.776Z,81.94
2023-02-13T17:43:19.783Z,82.11
2023-02-13T17:45:48.121Z,82.21
2023-02-13T17:48:16.366Z,82.53
2023-02-13T17:50:44.337Z,82.26
2023-02-13T17:53:24.015Z,82.52
2023-02-13T17:55:52.506Z,82.92
2023-02-13T17:58:20.191Z,82.94
2023-02-13T18:00:48.230Z,82.76
2023-02-13T18:03:16.121Z,83.05
2023-02-13T18:05:43.860Z,82.90
2023-02-13T18:08:11.673Z,83.00
2023-02-13T18:10:40.690Z,83.09
2023-02-13T18:13:08.949Z,83.35
2023-02-13T18:15:42.082Z,83.11
2023-02-13T18:18:10.358Z,83.36
2023-02-13T18:20:38.114Z,83.41
2023-02-13T18:23:07.381Z,83.32
2023-02-13T18:25:35.619Z,83.29
2023-02-13T18:28:03.359Z,83.43
2023-02-13T18:30:31.212Z,83.62
2023-02-13T18:33:00.444Z,83.55
2023-02-13T18:35:28.174Z,83.86
2023-02-13T18:37:56.021Z,83.69
2023-02-13T18:40:23.786Z,83.78
2023-02-13T18:42:53.262Z,83.72
2023-02-13T18:45:21.033Z,83.64
2023-02-13T18:47:48.716Z,83.59
2023-02-13T18:50:16.698Z,83.54
2023-02-13T18:52:44.504Z,84.00
2023-02-13T18:55:12.274Z,83.87
2023-02-13T18:57:44.367Z,83.52
2023-02-13T19:00:12.828Z,83.82
2023-02-13T19:02:40.581Z,83.65
2023-02-13T19:05:08.358Z,83.73
2023-02-13T19:07:36.066Z,84.01
2023-02-13T19:10:03.847Z,83.87
2023-02-13T19:12:31.576Z,83.80
2023-02-13T19:14:59.309Z,83.84
2023-02-13T19:17:27.026Z,83.92
2023-02-13T19:19:56.153Z,83.79
2023-02-13T19:22:24.258Z,83.84
2023-02-13T19:24:52.315Z,83.67
2023-02-13T19:27:20.283Z,83.81
2023-02-13T19:29:48.893Z,83.99
2023-02-13T19:32:16.742Z,83.83
2023-02-13T19:34:44.783Z,83.61
2023-02-13T19:37:12.855Z,83.89
2023-02-13T19:39:40.840Z,83.74
2023-02-13T19:42:09.023Z,83.58
2023-02-13T19:44:36.862Z,83.62
2023-02-13T19:47:04.561Z,83.73
2023-02-13T19:49:32.548Z,83.55
2023-02-13T19:52:00.483Z,83.68
2023-02-13T19:54:28.322Z,83.57
2023-02-13T19:57:01.321Z,83.82
2023-02-13T19:59:29.172Z,83.71
2023-02-13T20:01:57.102Z,83.53
2023-02-13T20:04:25.078Z,83.71
2023-02-13T20:06:58.722Z,83.73
2023-02-13T20:09:26.504Z,83.61
2023-02-13T20:11:54.297Z,83.76
2023-02-13T20:14:22.039Z,83.96
2023-02-13T20:16:49.807Z,83.75
2023-02-13T20:19:17.572Z,84.12
2023-02-13T20:21:46.457Z,84.24
2023-02-13T20:24:14.200Z,83.84
2023-02-13T20:26:42.332Z,84.02
2023-02-13T20:29:10.663Z,83.92
2023-02-13T20:31:42.230Z,84.57
2023-02-13T20:34:10.878Z,84.87
2023-02-13T20:36:38.641Z,84.66
2023-02-13T20:39:08.721Z,85.21
2023-02-13T20:41:38.718Z,84.95
2023-02-13T20:44:12.472Z,84.93
2023-02-13T20:46:41.719Z,85.25
2023-02-13T20:49:11.484Z,85.28
2023-02-13T20:51:39.710Z,85.02
2023-02-13T20:54:07.607Z,85.08
2023-02-13T20:56:35.362Z,85.30
2023-02-13T20:59:03.689Z,85.55
2023-02-13T21:01:34.435Z,85.32
2023-02-13T21:04:02.779Z,85.28
2023-02-13T21:06:33.575Z,85.70
2023-02-13T21:09:02.511Z,86.31
2023-02-13T21:11:32.715Z,85.90
2023-02-13T21:14:01.051Z,85.84
2023-02-13T21:16:31.883Z,86.07
2023-02-13T21:19:02.200Z,85.83
2023-02-13T21:21:34.573Z,85.85
2023-02-13T21:24:08.362Z,86.30
2023-02-13T21:26:37.009Z,86.16
2023-02-13T21:29:06.946Z,86.25
2023-02-13T21:31:38.258Z,86.32
2023-02-13T21:34:09.047Z,86.23
2023-02-13T21:36:38.475Z,86.00
2023-02-13T21:39:08.425Z,86.09
2023-02-13T21:41:36.476Z,85.94
2023-02-13T21:44:04.301Z,85.79
2023-02-13T21:46:33.959Z,85.96
2023-02-13T21:49:04.442Z,85.99
2023-02-13T21:51:34.061Z,86.04
2023-02-13T21:54:02.444Z,85.85
2023-02-13T21:56:32.951Z,86.10
2023-02-13T21:59:01.293Z,85.96
2023-02-13T22:01:32.004Z,86.15
2023-02-13T22:04:02.247Z,86.10
2023-02-13T22:06:32.138Z,86.03
2023-02-13T22:09:02.336Z,86.31
2023-02-13T22:11:30.593Z,86.41
2023-02-13T22:14:03.944Z,86.14
2023-02-13T22:16:32.796Z,86.11
2023-02-13T22:19:01.153Z,86.43
2023-02-13T22:21:31.769Z,86.51
2023-02-13T22:24:00.270Z,86.47
2023-02-13T22:26:37.108Z,86.39
2023-02-13T22:29:10.515Z,86.86
2023-02-13T22:31:39.103Z,86.58
2023-02-13T22:34:07.862Z,86.98
2023-02-13T22:36:41.181Z,86.79
2023-02-13T22:39:10.886Z,87.02
2023-02-13T22:41:39.413Z,87.27
2023-02-13T22:44:07.247Z,87.22
2023-02-13T22:46:36.040Z,87.49
2023-02-13T22:49:04.155Z,87.47
2023-02-13T22:51:34.622Z,87.43
2023-02-13T22:54:03.173Z,88.78
2023-02-13T22:56:32.325Z,88.08
2023-02-13T22:59:00.629Z,87.94
2023-02-13T23:01:29.763Z,88.05
2023-02-13T23:03:58.439Z,88.11
2023-02-13T23:06:26.935Z,88.18
2023-02-13T23:08:55.018Z,88.26
2023-02-13T23:11:44.922Z,88.01
2023-02-13T23:14:13.647Z,87.94
2023-02-13T23:17:00.993Z,88.26
2023-02-13T23:19:30.809Z,88.15
2023-02-13T23:21:59.230Z,88.39
2023-02-13T23:24:27.366Z,88.26
2023-02-13T23:26:55.060Z,88.85
2023-02-13T23:29:23.022Z,88.60
2023-02-13T23:31:51.015Z,88.69
2023-02-13T23:34:18.760Z,88.87
2023-02-13T23:36:46.652Z,88.94
2023-02-13T23:39:14.664Z,88.98
2023-02-13T23:41:42.384Z,88.78
2023-02-13T23:44:10.138Z,88.73
2023-02-13T23:46:37.886Z,88.74
2023-02-13T23:49:07.412Z,88.88
2023-02-13T23:51:35.416Z,88.90
2023-02-13T23:54:03.069Z,88.89
2023-02-13T23:56:30.854Z,88.90
2023-02-13T23:58:58.569Z,88.79
